createdAt,value
2018-08-07T00:00:01.274Z,31.20
2018-08-07T00:02:33.937Z,31.20
2018-08-07T00:05:06.618Z,31.20
2018-08-07T00:07:39.390Z,31.20
2018-08-07T00:12:44.151Z,31.30
2018-08-07T00:15:16.915Z,31.40
2018-08-07T00:17:49.835Z,31.40
2018-08-07T00:20:22.413Z,31.50
2018-08-07T00:22:55.028Z,31.50
2018-08-07T00:25:27.740Z,31.60
2018-08-07T00:28:00.171Z,31.50
2018-08-07T00:30:32.586Z,31.50
2018-08-07T00:33:05.005Z,31.50
2018-08-07T00:35:37.118Z,31.60
2018-08-07T00:38:09.710Z,31.60
2018-08-07T00:40:42.138Z,31.60
2018-08-07T00:43:14.601Z,31.60
2018-08-07T00:45:47.197Z,31.50
2018-08-07T00:48:20.273Z,31.50
2018-08-07T00:50:52.718Z,31.40
2018-08-07T00:53:25.552Z,31.40
2018-08-07T00:55:58.366Z,31.40
2018-08-07T00:58:31.359Z,31.40
2018-08-07T01:01:03.871Z,31.40
2018-08-07T01:03:36.664Z,31.40
2018-08-07T01:08:40.687Z,31.30
2018-08-07T01:11:13.574Z,31.20
2018-08-07T01:13:46.538Z,31.20
2018-08-07T01:16:19.275Z,31.20
2018-08-07T01:18:51.615Z,31.10
2018-08-07T01:21:24.072Z,31.10
2018-08-07T01:23:56.629Z,31.10
2018-08-07T01:26:29.452Z,31.10
2018-08-07T01:29:02.230Z,31.00
2018-08-07T01:31:34.817Z,31.00
2018-08-07T01:34:07.882Z,31.00
2018-08-07T01:36:40.349Z,30.90
2018-08-07T01:44:17.208Z,30.70
2018-08-07T01:46:49.757Z,30.60
2018-08-07T01:49:22.155Z,30.70
2018-08-07T01:51:54.541Z,30.60
2018-08-07T01:54:27.366Z,30.60
2018-08-07T01:57:00.170Z,30.50
2018-08-07T01:59:32.401Z,30.50
2018-08-07T02:02:05.481Z,30.50
2018-08-07T02:04:38.357Z,30.50
2018-08-07T02:07:11.309Z,30.40
2018-08-07T02:09:44.067Z,30.40
2018-08-07T02:12:16.740Z,30.40
2018-08-07T02:17:21.000Z,30.20
2018-08-07T02:19:53.160Z,30.10
2018-08-07T02:22:25.729Z,30.10
2018-08-07T02:24:58.219Z,30.00
2018-08-07T02:27:31.278Z,29.90
2018-08-07T02:30:03.790Z,29.80
2018-08-07T02:32:36.369Z,29.80
2018-08-07T02:35:10.548Z,29.60
2018-08-07T02:37:43.989Z,29.50
2018-08-07T02:40:17.103Z,29.50
2018-08-07T02:42:49.963Z,29.40
2018-08-07T02:45:22.465Z,29.30
2018-08-07T02:47:55.176Z,29.30
2018-08-07T02:50:27.903Z,29.20
2018-08-07T02:53:00.421Z,29.10
2018-08-07T02:58:03.899Z,28.90
2018-08-07T03:00:37.788Z,28.90
2018-08-07T03:03:10.877Z,28.70
2018-08-07T03:05:44.081Z,28.60
2018-08-07T03:08:16.505Z,28.50
2018-08-07T03:10:49.129Z,28.40
2018-08-07T03:13:21.774Z,28.30
2018-08-07T03:15:54.243Z,28.20
2018-08-07T03:18:26.816Z,28.10
2018-08-07T03:20:59.866Z,28.00
2018-08-07T03:26:03.863Z,27.80
2018-08-07T03:28:36.553Z,27.70
2018-08-07T03:31:09.474Z,27.70
2018-08-07T03:33:42.325Z,27.60
2018-08-07T03:36:15.113Z,27.50
2018-08-07T03:38:47.686Z,27.40
2018-08-07T03:41:19.804Z,27.30
2018-08-07T03:43:52.654Z,27.20
2018-08-07T03:46:25.389Z,27.20
2018-08-07T03:48:57.948Z,27.10
2018-08-07T03:51:30.564Z,27.00
2018-08-07T03:54:03.470Z,26.90
2018-08-07T03:56:35.868Z,26.80
2018-08-07T03:59:08.640Z,26.70
2018-08-07T04:01:41.120Z,26.60
2018-08-07T04:04:13.485Z,26.50
2018-08-07T04:06:46.284Z,26.40
2018-08-07T04:09:18.987Z,26.30
2018-08-07T04:11:51.445Z,26.10
2018-08-07T04:14:24.019Z,26.10
2018-08-07T04:16:57.582Z,26.00
2018-08-07T04:19:30.086Z,25.90
2018-08-07T04:22:02.664Z,25.80
2018-08-07T04:24:35.189Z,25.70
2018-08-07T04:27:07.799Z,25.60
2018-08-07T04:29:40.183Z,25.50
2018-08-07T04:32:12.946Z,25.40
2018-08-07T04:34:46.058Z,25.40
2018-08-07T04:37:18.693Z,25.30
2018-08-07T04:39:51.563Z,25.20
2018-08-07T04:42:24.153Z,25.10
2018-08-07T04:44:56.776Z,25.10
2018-08-07T04:47:29.558Z,25.00
2018-08-07T04:50:02.780Z,25.00
2018-08-07T04:52:35.635Z,24.90
2018-08-07T04:55:08.548Z,24.80
2018-08-07T04:57:40.851Z,24.80
2018-08-07T05:00:17.753Z,24.70
2018-08-07T05:02:50.996Z,24.60
2018-08-07T05:05:24.621Z,24.60
2018-08-07T05:07:57.821Z,24.50
2018-08-07T05:10:30.953Z,24.50
2018-08-07T05:13:03.351Z,24.40
2018-08-07T05:15:36.211Z,24.30
2018-08-07T05:18:08.597Z,24.30
2018-08-07T05:20:41.465Z,24.20
2018-08-07T05:23:13.940Z,24.10
2018-08-07T05:25:46.354Z,24.10
2018-08-07T05:28:18.572Z,24.00
2018-08-07T05:30:51.149Z,23.90
2018-08-07T05:33:23.426Z,23.90
2018-08-07T05:35:56.096Z,23.80
2018-08-07T05:38:30.169Z,23.70
2018-08-07T05:41:02.594Z,23.70
2018-08-07T05:43:34.519Z,23.60
2018-08-07T05:46:07.746Z,23.60
2018-08-07T05:48:40.326Z,23.60
2018-08-07T05:51:12.813Z,23.50
2018-08-07T05:53:45.290Z,23.40
2018-08-07T05:56:18.039Z,23.30
2018-08-07T05:58:50.477Z,23.30
2018-08-07T06:01:23.259Z,23.30
2018-08-07T06:03:55.896Z,23.20
2018-08-07T06:06:28.363Z,23.10
2018-08-07T06:09:00.955Z,23.10
2018-08-07T06:11:33.750Z,23.00
2018-08-07T06:14:06.169Z,23.00
2018-08-07T06:16:39.022Z,22.90
2018-08-07T06:19:11.456Z,22.90
2018-08-07T06:21:44.203Z,22.80
2018-08-07T06:24:17.278Z,22.70
2018-08-07T06:26:49.743Z,22.60
2018-08-07T06:29:22.127Z,22.60
2018-08-07T06:31:54.497Z,22.60
2018-08-07T06:34:26.857Z,22.50
2018-08-07T06:36:59.243Z,22.50
2018-08-07T06:39:31.862Z,22.50
2018-08-07T06:42:04.313Z,22.40
2018-08-07T06:44:36.452Z,22.30
2018-08-07T06:47:08.774Z,22.30
2018-08-07T06:49:41.157Z,22.30
2018-08-07T06:52:13.747Z,22.20
2018-08-07T06:57:17.765Z,22.20
2018-08-07T06:59:49.959Z,22.10
2018-08-07T07:02:22.569Z,22.10
2018-08-07T07:04:55.162Z,22.00
2018-08-07T07:07:27.528Z,21.90
2018-08-07T07:10:00.003Z,21.90
2018-08-07T07:12:32.559Z,21.80
2018-08-07T07:15:05.452Z,21.70
2018-08-07T07:17:37.812Z,21.70
2018-08-07T07:20:12.934Z,21.60
2018-08-07T07:22:46.294Z,21.50
2018-08-07T07:25:18.852Z,21.50
2018-08-07T07:27:51.238Z,21.40
2018-08-07T07:30:24.596Z,21.30
2018-08-07T07:32:57.312Z,21.30
2018-08-07T07:35:29.954Z,21.20
2018-08-07T07:38:02.604Z,21.10
2018-08-07T07:40:35.041Z,21.00
2018-08-07T07:45:38.670Z,20.90
2018-08-07T07:48:11.202Z,20.90
2018-08-07T07:50:43.795Z,20.80
2018-08-07T07:53:16.185Z,20.70
2018-08-07T07:55:48.923Z,20.70
2018-08-07T07:58:21.720Z,20.60
2018-08-07T08:00:53.931Z,20.60
2018-08-07T08:03:26.668Z,20.60
2018-08-07T08:05:59.049Z,20.40
2018-08-07T08:08:31.249Z,20.30
2018-08-07T08:11:04.070Z,20.30
2018-08-07T08:13:36.296Z,20.20
2018-08-07T08:16:09.083Z,20.10
2018-08-07T08:18:41.528Z,20.20
2018-08-07T08:21:14.819Z,20.10
2018-08-07T08:23:47.147Z,20.10
2018-08-07T08:26:19.679Z,20.00
2018-08-07T08:28:52.373Z,20.00
2018-08-07T08:31:24.603Z,20.00
2018-08-07T08:33:57.002Z,19.90
2018-08-07T08:36:29.311Z,19.90
2018-08-07T08:39:01.631Z,19.80
2018-08-07T08:41:34.064Z,19.80
2018-08-07T08:44:06.836Z,19.70
2018-08-07T08:46:39.730Z,19.70
2018-08-07T08:49:12.439Z,19.60
2018-08-07T08:51:44.694Z,19.60
2018-08-07T08:54:17.411Z,19.50
2018-08-07T08:56:49.895Z,19.50
2018-08-07T08:59:22.141Z,19.50
2018-08-07T09:01:54.469Z,19.50
2018-08-07T09:04:26.889Z,19.50
2018-08-07T09:06:59.371Z,19.40
2018-08-07T09:09:31.804Z,19.40
2018-08-07T09:12:04.681Z,19.40
2018-08-07T09:14:37.046Z,19.40
2018-08-07T09:17:09.193Z,19.30
2018-08-07T09:19:41.827Z,19.30
2018-08-07T09:22:14.200Z,19.30
2018-08-07T09:24:46.846Z,19.30
2018-08-07T09:27:19.263Z,19.20
2018-08-07T09:29:51.695Z,19.20
2018-08-07T09:32:24.009Z,19.10
2018-08-07T09:37:27.551Z,19.10
2018-08-07T09:40:00.055Z,19.00
2018-08-07T09:42:32.558Z,19.00
2018-08-07T09:45:05.182Z,19.00
2018-08-07T09:47:37.764Z,19.00
2018-08-07T09:50:10.278Z,18.90
2018-08-07T09:52:42.825Z,18.80
2018-08-07T09:55:15.331Z,18.80
2018-08-07T09:57:47.893Z,18.80
2018-08-07T10:00:26.401Z,18.70
2018-08-07T10:03:05.400Z,18.70
2018-08-07T10:05:37.666Z,18.60
2018-08-07T10:08:10.430Z,18.50
2018-08-07T10:10:43.071Z,18.50
2018-08-07T10:13:15.648Z,18.50
2018-08-07T10:15:47.890Z,18.40
2018-08-07T10:18:20.255Z,18.40
2018-08-07T10:20:53.403Z,18.40
2018-08-07T10:23:26.000Z,18.30
2018-08-07T10:25:58.731Z,18.20
2018-08-07T10:28:31.426Z,18.20
2018-08-07T10:31:03.861Z,18.20
2018-08-07T10:33:36.149Z,18.10
2018-08-07T10:36:08.169Z,18.10
2018-08-07T10:38:40.599Z,18.00
2018-08-07T10:41:13.743Z,18.00
2018-08-07T10:43:46.188Z,18.00
2018-08-07T10:46:18.550Z,17.90
2018-08-07T10:48:51.395Z,17.90
2018-08-07T10:51:23.841Z,17.80
2018-08-07T10:53:55.925Z,17.80
2018-08-07T10:56:28.123Z,17.80
2018-08-07T10:59:00.537Z,17.70
2018-08-07T11:01:33.044Z,17.70
2018-08-07T11:04:06.144Z,17.60
2018-08-07T11:06:38.459Z,17.60
2018-08-07T11:09:12.666Z,17.60
2018-08-07T11:11:45.006Z,17.50
2018-08-07T11:14:17.452Z,17.50
2018-08-07T11:16:49.896Z,17.40
2018-08-07T11:19:22.308Z,17.30
2018-08-07T11:21:54.683Z,17.30
2018-08-07T11:24:27.844Z,17.30
2018-08-07T11:27:00.207Z,17.30
2018-08-07T11:29:32.494Z,17.20
2018-08-07T11:32:04.908Z,17.20
2018-08-07T11:34:37.401Z,17.20
2018-08-07T11:39:40.824Z,17.10
2018-08-07T11:42:13.174Z,17.10
2018-08-07T11:44:45.528Z,17.00
2018-08-07T11:47:18.004Z,17.00
2018-08-07T11:49:50.451Z,17.00
2018-08-07T11:52:22.616Z,16.90
2018-08-07T11:54:54.995Z,16.90
2018-08-07T11:57:27.313Z,16.80
2018-08-07T11:59:59.703Z,16.80
2018-08-07T12:02:32.287Z,16.80
2018-08-07T12:05:05.471Z,16.80
2018-08-07T12:07:38.833Z,16.70
2018-08-07T12:12:44.249Z,16.70
2018-08-07T12:15:18.527Z,16.70
2018-08-07T12:17:51.000Z,16.60
2018-08-07T12:20:23.986Z,16.60
2018-08-07T12:22:56.674Z,16.60
2018-08-07T12:25:29.271Z,16.60
2018-08-07T12:28:02.549Z,16.50
2018-08-07T12:30:35.163Z,16.50
2018-08-07T12:33:07.809Z,16.50
2018-08-07T12:35:40.194Z,16.50
2018-08-07T12:38:12.374Z,16.40
2018-08-07T12:40:45.009Z,16.40
2018-08-07T12:43:17.356Z,16.40
2018-08-07T12:45:49.950Z,16.30
2018-08-07T12:48:22.360Z,16.40
2018-08-07T12:50:54.870Z,16.30
2018-08-07T12:53:27.669Z,16.30
2018-08-07T12:56:00.397Z,16.30
2018-08-07T12:58:32.937Z,16.30
2018-08-07T13:01:05.688Z,16.30
2018-08-07T13:03:38.263Z,16.20
2018-08-07T13:06:11.127Z,16.30
2018-08-07T13:08:44.463Z,16.20
2018-08-07T13:11:17.024Z,16.20
2018-08-07T13:13:49.488Z,16.20
2018-08-07T13:16:21.892Z,16.20
2018-08-07T13:18:54.372Z,16.30
2018-08-07T13:21:27.020Z,16.30
2018-08-07T13:23:59.825Z,16.30
2018-08-07T13:26:32.910Z,16.20
2018-08-07T13:29:05.576Z,16.20
2018-08-07T13:31:38.414Z,16.20
2018-08-07T13:34:11.858Z,16.20
2018-08-07T13:36:45.718Z,16.20
2018-08-07T13:39:18.438Z,16.20
2018-08-07T13:41:51.390Z,16.30
2018-08-07T13:44:24.007Z,16.30
2018-08-07T13:46:56.850Z,16.30
2018-08-07T13:49:29.538Z,16.30
2018-08-07T13:52:02.440Z,16.40
2018-08-07T13:54:34.799Z,16.40
2018-08-07T13:57:07.591Z,16.50
2018-08-07T13:59:40.255Z,16.50
2018-08-07T14:02:12.845Z,16.60
2018-08-07T14:04:45.406Z,16.60
2018-08-07T14:07:18.116Z,16.70
2018-08-07T14:12:23.110Z,16.80
2018-08-07T14:14:55.584Z,16.90
2018-08-07T14:17:30.219Z,17.00
2018-08-07T14:20:02.879Z,17.10
2018-08-07T14:22:35.409Z,17.10
2018-08-07T14:25:09.724Z,17.20
2018-08-07T14:27:42.455Z,17.30
2018-08-07T14:30:18.391Z,17.40
2018-08-07T14:32:51.035Z,17.40
2018-08-07T14:35:23.790Z,17.50
2018-08-07T14:37:56.635Z,17.60
2018-08-07T14:40:29.973Z,17.80
2018-08-07T14:43:02.673Z,17.80
2018-08-07T14:45:35.103Z,17.80
2018-08-07T14:48:07.692Z,17.90
2018-08-07T14:50:41.124Z,18.10
2018-08-07T14:53:13.578Z,18.10
2018-08-07T14:55:46.184Z,18.20
2018-08-07T14:58:18.448Z,18.30
2018-08-07T15:00:51.249Z,18.40
2018-08-07T15:03:27.148Z,18.50
2018-08-07T15:05:59.808Z,18.50
2018-08-07T15:08:33.511Z,18.60
2018-08-07T15:11:06.457Z,18.80
2018-08-07T15:13:39.011Z,18.80
2018-08-07T15:16:11.620Z,18.90
2018-08-07T15:18:44.476Z,19.10
2018-08-07T15:21:16.959Z,19.30
2018-08-07T15:23:49.905Z,19.80
2018-08-07T15:26:22.017Z,20.50
2018-08-07T15:28:54.512Z,21.40
2018-08-07T15:31:27.012Z,22.40
2018-08-07T15:34:00.544Z,23.20
2018-08-07T15:36:32.910Z,24.20
2018-08-07T15:39:06.102Z,25.20
2018-08-07T15:41:39.768Z,26.10
2018-08-07T15:44:12.171Z,26.80
2018-08-07T15:46:44.583Z,27.80
2018-08-07T15:49:17.295Z,28.50
2018-08-07T15:51:52.231Z,29.30
2018-08-07T15:54:24.727Z,29.70
2018-08-07T15:56:58.346Z,29.90
2018-08-07T15:59:31.300Z,30.20
2018-08-07T16:02:03.574Z,30.40
2018-08-07T16:04:35.985Z,30.90
2018-08-07T16:07:08.738Z,31.00
2018-08-07T16:09:41.256Z,30.90
2018-08-07T16:12:14.139Z,31.80
2018-08-07T16:14:46.678Z,32.20
2018-08-07T16:17:19.519Z,32.40
2018-08-07T16:19:52.259Z,31.70
2018-08-07T16:24:56.580Z,32.00
2018-08-07T16:27:29.704Z,32.60
2018-08-07T16:30:02.380Z,32.60
2018-08-07T16:32:34.972Z,33.20
2018-08-07T16:35:07.768Z,33.50
2018-08-07T16:37:40.588Z,33.40
2018-08-07T16:40:17.099Z,33.50
2018-08-07T16:42:50.329Z,33.60
2018-08-07T16:45:24.193Z,33.50
2018-08-07T16:47:56.871Z,33.20
2018-08-07T16:50:30.040Z,33.60
2018-08-07T16:53:03.982Z,34.00
2018-08-07T16:55:36.544Z,34.70
2018-08-07T16:58:08.998Z,34.80
2018-08-07T17:00:41.683Z,34.50
2018-08-07T17:03:14.625Z,34.40
2018-08-07T17:05:48.682Z,34.60
2018-08-07T17:08:21.224Z,35.10
2018-08-07T17:10:53.928Z,35.40
2018-08-07T17:13:26.261Z,35.00
2018-08-07T17:15:58.731Z,35.10
2018-08-07T17:18:31.395Z,35.20
2018-08-07T17:21:04.165Z,35.50
2018-08-07T17:23:36.819Z,35.30
2018-08-07T17:26:09.320Z,34.10
2018-08-07T17:28:42.157Z,34.10
2018-08-07T17:32:00.569Z,34.10
2018-08-07T17:34:34.203Z,34.40
2018-08-07T17:37:07.008Z,34.40
2018-08-07T17:39:39.740Z,34.60
2018-08-07T17:42:12.496Z,35.20
2018-08-07T17:44:45.620Z,35.20
2018-08-07T17:47:18.663Z,35.10
2018-08-07T17:49:51.009Z,34.60
2018-08-07T17:52:23.791Z,34.30
2018-08-07T17:54:56.391Z,33.60
2018-08-07T17:57:28.675Z,33.40
2018-08-07T18:00:02.541Z,32.10
2018-08-07T18:02:35.099Z,31.00
2018-08-07T18:05:08.595Z,30.80
2018-08-07T18:07:41.629Z,30.30
2018-08-07T18:10:14.586Z,29.80
2018-08-07T18:12:47.801Z,29.40
2018-08-07T18:15:21.793Z,29.60
2018-08-07T18:17:54.281Z,29.50
2018-08-07T18:20:27.826Z,29.60
2018-08-07T18:23:00.464Z,29.20
2018-08-07T18:25:32.728Z,29.40
2018-08-07T18:28:05.579Z,29.40
2018-08-07T18:30:37.916Z,29.60
2018-08-07T18:33:11.087Z,30.00
2018-08-07T18:35:43.741Z,30.40
2018-08-07T18:38:16.377Z,31.00
2018-08-07T18:40:48.937Z,31.20
2018-08-07T18:43:21.008Z,31.10
2018-08-07T18:45:53.644Z,31.20
2018-08-07T18:48:26.460Z,31.60
2018-08-07T18:50:58.923Z,31.80
2018-08-07T18:53:31.186Z,30.90
2018-08-07T18:56:03.547Z,31.20
2018-08-07T18:58:36.240Z,31.60
2018-08-07T19:01:09.115Z,32.10
2018-08-07T19:03:41.948Z,32.20
2018-08-07T19:06:14.643Z,32.80
2018-08-07T19:08:47.088Z,33.40
2018-08-07T19:11:19.673Z,34.00
2018-08-07T19:13:52.129Z,34.60
2018-08-07T19:16:24.550Z,34.60
2018-08-07T19:18:57.484Z,35.10
2018-08-07T19:21:29.913Z,34.90
2018-08-07T19:24:03.589Z,35.50
2018-08-07T19:26:35.729Z,35.40
2018-08-07T19:29:08.410Z,35.70
2018-08-07T19:31:40.583Z,35.40
2018-08-07T19:34:12.967Z,35.30
2018-08-07T19:36:45.690Z,35.50
2018-08-07T19:39:18.930Z,36.00
2018-08-07T19:41:51.133Z,36.10
2018-08-07T19:44:23.987Z,36.00
2018-08-07T19:46:56.481Z,36.30
2018-08-07T19:49:29.223Z,35.80
2018-08-07T19:52:01.632Z,36.30
2018-08-07T19:54:34.130Z,36.20
2018-08-07T19:57:07.236Z,36.30
2018-08-07T19:59:39.355Z,36.40
2018-08-07T20:02:11.889Z,35.70
2018-08-07T20:04:44.284Z,35.20
2018-08-07T20:07:17.222Z,34.60
2018-08-07T20:09:49.753Z,34.40
2018-08-07T20:12:22.600Z,33.50
2018-08-07T20:14:54.986Z,32.80
2018-08-07T20:17:27.460Z,32.40
2018-08-07T20:19:59.951Z,32.50
2018-08-07T20:22:32.207Z,32.30
2018-08-07T20:25:05.219Z,32.20
2018-08-07T20:27:38.078Z,31.80
2018-08-07T20:30:17.308Z,31.50
2018-08-07T20:32:51.006Z,31.40
2018-08-07T20:35:23.329Z,31.20
2018-08-07T20:37:55.852Z,31.10
2018-08-07T20:40:29.379Z,31.00
2018-08-07T20:43:01.786Z,30.70
2018-08-07T20:45:33.966Z,30.60
2018-08-07T20:48:06.370Z,30.80
2018-08-07T20:50:38.969Z,30.80
2018-08-07T20:53:11.281Z,30.70
2018-08-07T20:55:43.487Z,30.60
2018-08-07T20:58:15.959Z,30.60
2018-08-07T21:00:48.326Z,30.60
2018-08-07T21:03:20.856Z,30.70
2018-08-07T21:05:54.229Z,30.60
2018-08-07T21:08:26.892Z,30.60
2018-08-07T21:10:59.862Z,30.70
2018-08-07T21:13:32.318Z,30.70
2018-08-07T21:16:04.989Z,30.70
2018-08-07T21:18:37.516Z,30.40
2018-08-07T21:21:10.261Z,30.40
2018-08-07T21:23:42.768Z,30.40
2018-08-07T21:26:15.380Z,30.40
2018-08-07T21:28:47.881Z,30.50
2018-08-07T21:31:20.275Z,30.40
2018-08-07T21:33:52.989Z,30.60
2018-08-07T21:36:25.518Z,30.70
2018-08-07T21:38:57.908Z,30.90
2018-08-07T21:41:30.363Z,30.90
2018-08-07T21:44:03.200Z,31.00
2018-08-07T21:46:35.517Z,30.90
2018-08-07T21:49:07.815Z,31.00
2018-08-07T21:51:40.378Z,31.10
2018-08-07T21:54:12.877Z,31.10
2018-08-07T21:56:45.445Z,31.20
2018-08-07T21:59:17.744Z,31.30
2018-08-07T22:01:50.157Z,31.30
2018-08-07T22:04:22.465Z,31.10
2018-08-07T22:06:55.063Z,31.20
2018-08-07T22:09:28.227Z,31.20
2018-08-07T22:12:00.780Z,31.40
2018-08-07T22:14:33.933Z,31.40
2018-08-07T22:17:06.328Z,31.40
2018-08-07T22:19:39.078Z,31.50
2018-08-07T22:22:11.510Z,31.40
2018-08-07T22:24:43.990Z,31.40
2018-08-07T22:27:16.131Z,31.50
2018-08-07T22:29:48.650Z,31.50
2018-08-07T22:32:21.261Z,31.50
2018-08-07T22:34:53.561Z,31.60
2018-08-07T22:37:26.324Z,31.60
2018-08-07T22:39:59.501Z,31.70
2018-08-07T22:42:31.994Z,31.70
2018-08-07T22:45:04.578Z,31.70
2018-08-07T22:47:37.155Z,31.70
2018-08-07T22:50:10.559Z,31.80
2018-08-07T22:52:43.508Z,31.80
2018-08-07T22:55:18.266Z,31.90
2018-08-07T22:57:50.968Z,32.00
2018-08-07T23:00:23.796Z,32.00
2018-08-07T23:02:56.224Z,32.00
2018-08-07T23:05:32.503Z,32.10
2018-08-07T23:08:04.966Z,32.10
2018-08-07T23:10:37.874Z,32.20
2018-08-07T23:13:10.404Z,32.30
2018-08-07T23:15:43.104Z,32.40
2018-08-07T23:18:15.636Z,32.40
2018-08-07T23:20:48.216Z,32.50
2018-08-07T23:23:20.612Z,32.60
2018-08-07T23:25:52.931Z,32.70
2018-08-07T23:28:25.617Z,32.70
2018-08-07T23:30:57.822Z,32.70
2018-08-07T23:33:30.297Z,32.70
2018-08-07T23:36:02.496Z,32.70
2018-08-07T23:38:34.392Z,32.70
2018-08-07T23:41:07.111Z,32.70
2018-08-07T23:43:39.405Z,32.70
2018-08-07T23:46:11.753Z,32.70
2018-08-07T23:48:44.299Z,32.80
2018-08-07T23:51:17.322Z,32.90
2018-08-07T23:53:49.714Z,33.00
2018-08-07T23:56:22.144Z,33.00
2018-08-07T23:58:54.611Z,33.00
